Time;durP1;ratioP1;P1;durP2;ratioP2;P2;SDS_P1;SDS_P2;PMS_P1;PMS_P2;Temp;Humidity;BMP_temperature;BMP_pressure;BME280_temperature;BME280_humidity;BME280_pressure;Samples;Min_cycle;Max_cycle;Signal;HPM_P1;HPM_P2
2022/07/10 00:02:06;;;;;;;84.53;65.67;;;;;;;19.83;100.00;99225.66;1639891;85;21783;-57
2022/07/10 00:04:33;;;;;;;94.93;68.43;;;;;;;19.80;100.00;99232.80;1643551;85;21133;-55
2022/07/10 00:07:03;;;;;;;103.70;69.50;;;;;;;19.82;100.00;99228.05;1632167;86;21075;-56
2022/07/10 00:09:30;;;;;;;89.07;65.80;;;;;;;19.78;100.00;99230.44;1639811;85;21027;-56
2022/07/10 00:11:58;;;;;;;90.83;66.13;;;;;;;19.76;100.00;99222.51;1640485;85;21099;-60
2022/07/10 00:14:25;;;;;;;90.30;68.77;;;;;;;19.76;100.00;99227.80;1640068;85;21658;-64
2022/07/10 00:16:52;;;;;;;96.30;69.87;;;;;;;19.73;100.00;99221.72;1639324;86;21113;-55
2022/07/10 00:19:19;;;;;;;93.37;67.73;;;;;;;19.66;100.00;99216.20;1642216;86;21087;-56
2022/07/10 00:21:47;;;;;;;103.40;67.43;;;;;;;19.65;100.00;99211.95;1640135;86;21028;-57
2022/07/10 00:24:14;;;;;;;102.57;67.33;;;;;;;19.67;100.00;99211.70;1639728;86;21609;-55
2022/07/10 00:26:42;;;;;;;95.13;69.17;;;;;;;19.64;100.00;99202.44;1641550;86;22310;-57
2022/07/10 00:29:09;;;;;;;95.30;66.47;;;;;;;19.62;100.00;99209.86;1639366;86;21999;-55
2022/07/10 00:31:36;;;;;;;111.43;81.47;;;;;;;19.68;100.00;99202.70;1648591;85;21116;-55
2022/07/10 00:34:03;;;;;;;125.87;92.20;;;;;;;19.73;100.00;99201.88;1639898;86;21592;-62
2022/07/10 00:36:30;;;;;;;123.00;92.50;;;;;;;19.74;100.00;99202.95;1647731;85;21478;-55
2022/07/10 00:38:57;;;;;;;131.13;94.77;;;;;;;19.69;100.00;99201.09;1643113;86;21189;-57
2022/07/10 00:41:25;;;;;;;130.77;95.93;;;;;;;19.64;100.00;99202.44;1639930;86;20999;-54
2022/07/10 00:43:58;;;;;;;129.00;96.07;;;;;;;19.58;100.00;99204.00;1641302;85;20931;-64
2022/07/10 00:46:26;;;;;;;132.00;91.90;;;;;;;19.48;100.00;99197.44;1640090;86;21127;-55
2022/07/10 00:48:53;;;;;;;129.17;93.77;;;;;;;19.44;100.00;99210.39;1639513;86;22220;-61
2022/07/10 00:51:23;;;;;;;141.40;97.67;;;;;;;19.37;100.00;99199.30;1644616;86;21342;-55
2022/07/10 00:53:51;;;;;;;128.30;91.47;;;;;;;19.30;100.00;99198.77;1639764;86;21145;-61
2022/07/10 00:56:23;;;;;;;124.07;90.90;;;;;;;19.25;100.00;99196.14;1640150;86;21328;-55
2022/07/10 00:58:50;;;;;;;122.93;87.87;;;;;;;19.21;100.00;99194.56;1633574;86;22243;-62
2022/07/10 01:01:18;;;;;;;122.77;85.70;;;;;;;19.18;100.00;99196.41;1640062;86;21071;-55
2022/07/10 01:03:46;;;;;;;121.33;88.67;;;;;;;19.19;100.00;99192.17;1645539;85;21479;-56
2022/07/10 01:06:14;;;;;;;126.77;87.70;;;;;;;19.22;100.00;99190.06;1641698;85;21428;-55
2022/07/10 01:08:41;;;;;;;124.07;86.10;;;;;;;19.25;100.00;99189.00;1640514;86;21000;-61
2022/07/10 01:11:09;;;;;;;120.23;86.60;;;;;;;19.24;100.00;99187.41;1646902;85;21477;-55
2022/07/10 01:13:37;;;;;;;119.57;82.53;;;;;;;19.25;100.00;99186.36;1640545;86;21596;-63
2022/07/10 01:16:06;;;;;;;125.60;87.33;;;;;;;19.25;100.00;99181.08;1633345;86;21621;-55
2022/07/10 01:18:33;;;;;;;133.53;87.80;;;;;;;19.30;100.00;99178.95;1639736;86;21816;-58
2022/07/10 01:21:01;;;;;;;134.43;87.80;;;;;;;19.41;100.00;99181.31;1640122;85;21017;-57
2022/07/10 01:23:29;;;;;;;133.57;86.40;;;;;;;19.63;100.00;99177.07;1635303;87;21031;-63
2022/07/10 01:25:56;;;;;;;119.73;79.17;;;;;;;19.86;100.00;99166.95;1649934;85;20997;-55
2022/07/10 01:28:23;;;;;;;112.37;77.13;;;;;;;20.08;100.00;99173.22;1639974;86;21162;-55
2022/07/10 01:30:51;;;;;;;120.67;74.70;;;;;;;20.26;100.00;99175.75;1639662;86;21134;-56
2022/07/10 01:33:19;;;;;;;116.50;75.67;;;;;;;20.45;100.00;99162.14;1640305;86;21481;-56
2022/07/10 01:35:46;;;;;;;117.10;72.20;;;;;;;20.71;100.00;99158.03;1639519;86;21027;-57
2022/07/10 01:38:14;;;;;;;106.23;70.33;;;;;;;20.88;98.11;99155.78;1640299;86;21147;-57
2022/07/10 01:40:42;;;;;;;118.37;70.50;;;;;;;21.04;93.27;99159.88;1640332;84;21712;-64
2022/07/10 01:43:10;;;;;;;109.23;67.27;;;;;;;21.16;88.93;99149.44;1639566;86;21434;-55
2022/07/10 01:45:37;;;;;;;106.33;65.57;;;;;;;21.28;84.69;99141.36;1642584;85;21010;-56
2022/07/10 01:48:05;;;;;;;104.90;66.17;;;;;;;21.40;81.38;99142.86;1639281;86;21083;-56
2022/07/10 01:50:32;;;;;;;99.93;65.70;;;;;;;21.51;76.93;99141.69;1641517;86;21078;-55
2022/07/10 01:52:59;;;;;;;107.07;67.27;;;;;;;21.62;75.75;99142.61;1639748;86;21298;-55
2022/07/10 01:55:28;;;;;;;113.80;71.13;;;;;;;21.69;73.78;99144.14;1640201;86;21796;-55
2022/07/10 01:57:55;;;;;;;130.27;75.67;;;;;;;21.74;72.65;99139.55;1646590;85;21018;-61
2022/07/10 02:00:23;;;;;;;127.80;78.53;;;;;;;21.81;71.27;99140.54;1639565;86;21869;-55
2022/07/10 02:05:37;;;;;;;143.37;87.53;;;;;;;21.89;70.29;99151.05;1640473;86;21303;-57
2022/07/10 02:08:06;;;;;;;148.60;92.30;;;;;;;21.90;69.48;99145.48;1640147;86;21354;-56
2022/07/10 02:10:33;;;;;;;142.23;86.47;;;;;;;21.91;68.72;99152.36;1639932;85;21448;-56
2022/07/10 02:13:01;;;;;;;160.43;98.47;;;;;;;22.02;68.08;99151.16;1640404;86;21107;-55
2022/07/10 02:15:29;;;;;;;145.97;89.20;;;;;;;22.08;67.36;99147.89;1646304;85;21530;-62
2022/07/10 02:17:56;;;;;;;151.53;94.23;;;;;;;22.10;66.76;99150.52;1642667;85;22397;-55
2022/07/10 02:20:24;;;;;;;160.43;99.00;;;;;;;22.08;66.80;99144.69;1640747;86;21190;-56
2022/07/10 02:22:51;;;;;;;161.80;105.10;;;;;;;22.10;65.99;99147.86;1640411;85;21127;-55
2022/07/10 02:25:19;;;;;;;172.67;110.07;;;;;;;22.18;65.59;99150.98;1646493;86;21082;-55
2022/07/10 02:27:46;;;;;;;165.27;108.50;;;;;;;22.19;65.17;99146.70;1642564;85;21687;-55
2022/07/10 02:30:13;;;;;;;171.47;110.30;;;;;;;22.22;64.82;99141.38;1639697;86;21458;-63
2022/07/10 02:32:40;;;;;;;147.00;98.27;;;;;;;22.25;64.35;99139.48;1641614;85;21151;-55
2022/07/10 02:35:09;;;;;;;141.57;94.23;;;;;;;22.27;64.00;99135.98;1640505;86;21027;-56
2022/07/10 02:37:36;;;;;;;144.60;94.30;;;;;;;22.23;63.69;99132.32;1678147;83;21023;-56
2022/07/10 02:40:06;;;;;;;138.77;91.70;;;;;;;22.24;63.68;99127.28;1670285;84;21067;-54
2022/07/10 02:42:33;;;;;;;143.73;92.50;;;;;;;22.26;63.40;99128.56;1678485;83;21165;-55
2022/07/10 02:45:00;;;;;;;128.70;85.87;;;;;;;22.30;63.57;99128.77;1678218;83;21044;-55
2022/07/10 02:47:28;;;;;;;116.03;78.67;;;;;;;22.32;63.57;99129.29;1644122;85;20938;-61
2022/07/10 02:49:55;;;;;;;125.13;79.03;;;;;;;22.34;62.67;99128.45;1645405;85;21499;-55
2022/07/10 02:52:23;;;;;;;114.27;75.87;;;;;;;22.37;62.75;99115.93;1625675;87;21114;-56
2022/07/10 02:54:51;;;;;;;107.27;67.07;;;;;;;22.40;62.22;99115.36;1624039;86;21245;-55
2022/07/10 02:57:18;;;;;;;102.07;63.80;;;;;;;22.44;62.02;99120.34;1642589;86;20976;-58
2022/07/10 02:59:47;;;;;;;90.00;56.60;;;;;;;22.49;61.75;99112.28;1639779;86;21098;-55
2022/07/10 03:02:14;;;;;;;86.30;58.57;;;;;;;22.55;60.88;99111.14;1640245;86;21103;-57
2022/07/10 03:04:41;;;;;;;87.00;57.83;;;;;;;22.63;61.30;99116.33;1645442;86;21548;-56
2022/07/10 03:07:08;;;;;;;92.60;56.90;;;;;;;22.67;61.57;99111.22;1633407;86;21174;-62
2022/07/10 03:09:36;;;;;;;84.63;55.60;;;;;;;22.71;61.51;99109.02;1633272;86;21051;-55
2022/07/10 03:12:05;;;;;;;86.30;55.37;;;;;;;22.72;61.04;99107.93;1625044;86;21101;-56
2022/07/10 03:14:32;;;;;;;86.07;52.93;;;;;;;22.80;61.04;99117.10;1632942;86;22239;-55
2022/07/10 03:16:59;;;;;;;79.20;50.47;;;;;;;22.85;60.93;99109.61;1640585;86;21522;-56
2022/07/10 03:19:26;;;;;;;77.57;49.03;;;;;;;22.93;61.20;99114.28;1632948;86;21189;-55
2022/07/10 03:21:53;;;;;;;74.40;48.33;;;;;;;22.97;61.39;99110.73;1613705;86;21378;-55
2022/07/10 03:24:21;;;;;;;73.03;46.80;;;;;;;23.03;61.45;99106.92;1641477;85;20952;-55
2022/07/10 03:26:48;;;;;;;75.87;48.47;;;;;;;23.08;61.24;99098.06;1653045;85;21475;-55
2022/07/10 03:29:15;;;;;;;71.20;45.97;;;;;;;23.13;61.16;99099.83;1648046;85;21100;-62
2022/07/10 03:31:42;;;;;;;61.80;42.37;;;;;;;23.21;61.01;99095.16;1641610;85;21250;-55
2022/07/10 03:34:10;;;;;;;69.13;43.30;;;;;;;23.39;60.10;99116.09;1646958;85;21055;-56
2022/07/10 03:36:37;;;;;;;65.70;43.60;;;;;;;23.63;59.04;99107.36;1642155;85;21036;-56
2022/07/10 03:39:04;;;;;;;72.50;45.70;;;;;;;23.91;58.81;99111.36;1642229;85;20972;-55
2022/07/10 03:41:31;;;;;;;68.53;45.27;;;;;;;24.14;56.78;99118.84;1648806;85;21112;-55
2022/07/10 03:43:58;;;;;;;75.03;46.70;;;;;;;24.25;56.32;99126.85;1641901;85;21485;-55
2022/07/10 03:46:26;;;;;;;66.60;43.83;;;;;;;24.24;55.74;99119.93;1641396;85;21040;-56
2022/07/10 03:48:53;;;;;;;73.20;45.67;;;;;;;24.21;55.69;99133.88;1643534;85;21081;-56
2022/07/10 03:51:21;;;;;;;70.47;46.07;;;;;;;24.22;55.62;99135.44;1641719;85;21217;-56
2022/07/10 03:53:48;;;;;;;61.63;41.83;;;;;;;24.22;57.19;99135.44;1642112;85;21138;-55
2022/07/10 03:59:03;;;;;;;66.40;42.80;;;;;;;24.35;58.40;99133.80;1641868;85;21086;-57
2022/07/10 04:01:30;;;;;;;71.57;42.53;;;;;;;24.49;57.21;99130.03;1620380;87;22074;-55
2022/07/10 04:03:57;;;;;;;70.73;42.60;;;;;;;24.54;56.58;99134.45;1648295;85;21135;-55
2022/07/10 04:06:24;;;;;;;63.03;42.07;;;;;;;24.61;56.62;99127.38;1646855;83;21102;-56
2022/07/10 04:08:51;;;;;;;61.50;40.07;;;;;;;24.67;57.04;99128.83;1643924;86;21445;-56
2022/07/10 04:11:19;;;;;;;62.50;38.73;;;;;;;24.70;57.40;99138.34;1622970;86;20997;-61
2022/07/10 04:13:46;;;;;;;54.10;35.43;;;;;;;24.65;58.11;99135.00;1641095;86;21473;-56
2022/07/10 04:16:14;;;;;;;58.70;37.10;;;;;;;24.63;59.19;99140.64;1639043;85;21121;-58
2022/07/10 04:18:41;;;;;;;57.80;37.27;;;;;;;24.62;59.71;99127.61;1640192;86;21544;-55
2022/07/10 04:21:08;;;;;;;52.47;34.87;;;;;;;24.69;58.56;99131.41;1643410;85;21156;-55
2022/07/10 04:23:35;;;;;;;48.77;32.10;;;;;;;24.72;57.72;99124.70;1640544;86;21141;-54
2022/07/10 04:26:03;;;;;;;55.47;33.30;;;;;;;24.84;57.45;99125.48;1639212;86;21107;-63
2022/07/10 04:28:30;;;;;;;44.90;29.53;;;;;;;24.94;56.84;99127.89;1639456;86;20939;-56
2022/07/10 04:30:58;;;;;;;47.60;29.57;;;;;;;24.98;56.18;99132.85;1640468;86;21828;-55
2022/07/10 04:33:26;;;;;;;46.13;29.27;;;;;;;24.98;55.81;99130.97;1641085;85;21287;-61
2022/07/10 04:35:53;;;;;;;42.23;27.23;;;;;;;24.97;55.44;99128.62;1647906;85;21011;-60
2022/07/10 04:38:20;;;;;;;41.13;27.10;;;;;;;24.89;55.40;99132.81;1640356;85;21574;-56
2022/07/10 04:40:47;;;;;;;42.97;27.77;;;;;;;24.84;56.44;99137.47;1639723;86;21477;-55
2022/07/10 04:43:15;;;;;;;45.27;27.77;;;;;;;24.79;58.19;99137.61;1649974;85;21581;-54
2022/07/10 04:45:42;;;;;;;45.90;26.03;;;;;;;24.69;59.78;99135.96;1640093;85;21964;-54
2022/07/10 04:48:09;;;;;;;39.73;27.33;;;;;;;24.61;60.45;99147.36;1639702;86;21492;-54
2022/07/10 04:50:39;;;;;;;40.30;23.37;;;;;;;24.54;62.12;99148.32;1640877;85;20994;-57
2022/07/10 04:53:09;;;;;;;32.83;21.60;;;;;;;24.42;62.41;99137.66;1640121;86;21359;-56
2022/07/10 04:55:36;;;;;;;37.03;22.07;;;;;;;24.46;61.94;99143.17;1640378;86;21000;-61
2022/07/10 04:58:04;;;;;;;40.03;22.43;;;;;;;24.54;62.34;99135.78;1630094;86;21509;-58
2022/07/10 05:00:34;;;;;;;33.33;21.73;;;;;;;24.59;61.90;99142.89;1638973;85;21144;-55
2022/07/10 05:03:01;;;;;;;34.70;21.47;;;;;;;24.62;62.50;99139.59;1685166;83;20988;-55
2022/07/10 05:05:30;;;;;;;34.83;19.13;;;;;;;24.69;61.56;99130.63;1670335;83;21032;-56
2022/07/10 05:07:58;;;;;;;24.90;14.40;;;;;;;24.75;62.27;99121.44;1652363;85;21078;-63
2022/07/10 05:10:27;;;;;;;22.73;12.37;;;;;;;24.81;64.31;99116.75;1651295;86;21150;-55
2022/07/10 05:12:55;;;;;;;22.27;12.63;;;;;;;24.87;67.66;99142.98;1651574;86;21114;-58
2022/07/10 05:15:23;;;;;;;22.87;11.13;;;;;;;24.94;71.14;99157.22;1653141;85;21109;-57
2022/07/10 05:17:50;;;;;;;21.17;10.17;;;;;;;24.97;72.36;99153.40;1651873;86;21863;-57
2022/07/10 05:20:17;;;;;;;15.70;6.90;;;;;;;24.98;76.81;99157.63;1651491;85;21557;-59
2022/07/10 05:22:45;;;;;;;15.00;6.43;;;;;;;24.99;82.27;99155.75;1652992;86;22125;-56
2022/07/10 05:25:12;;;;;;;14.33;6.53;;;;;;;24.98;86.67;99161.63;1651422;86;21066;-59
2022/07/10 05:27:40;;;;;;;19.30;7.87;;;;;;;24.99;87.16;99156.53;1651304;85;21095;-56
2022/07/10 05:30:10;;;;;;;18.93;7.67;;;;;;;25.06;89.24;99148.66;1652528;85;21138;-62
2022/07/10 05:32:44;;;;;;;9.70;5.83;;;;;;;25.17;92.78;99152.66;1652060;86;21084;-57
2022/07/10 05:35:15;;;;;;;15.80;6.40;;;;;;;25.29;95.99;99147.53;1652256;86;21879;-59
2022/07/10 05:37:42;;;;;;;12.33;5.75;;;;;;;25.43;98.38;99152.78;1652645;84;25293;-65
2022/07/10 05:40:10;;;;;;;16.93;6.20;;;;;;;25.54;99.01;99155.41;1652753;85;20991;-56
2022/07/10 05:42:39;;;;;;;11.43;5.83;;;;;;;25.63;99.17;99150.09;1651647;85;20986;-56
2022/07/10 05:45:07;;;;;;;12.03;6.13;;;;;;;25.75;99.51;99144.94;1651211;86;21494;-56
2022/07/10 05:47:34;;;;;;;15.83;5.50;;;;;;;25.85;99.68;99142.02;1652464;85;21522;-57
2022/07/10 05:50:02;;;;;;;11.30;5.20;;;;;;;25.90;100.00;99145.86;1651146;86;21059;-57
2022/07/10 05:52:29;;;;;;;8.53;4.60;;;;;;;26.11;98.95;99134.59;1652944;86;21289;-56
2022/07/10 05:54:57;;;;;;;11.07;4.43;;;;;;;26.36;97.27;99135.13;1650965;84;21114;-63
2022/07/10 05:57:25;;;;;;;8.00;3.97;;;;;;;26.65;94.82;99128.38;1652698;85;21334;-55
2022/07/10 05:59:54;;;;;;;11.30;4.07;;;;;;;26.85;91.14;99122.36;1651188;85;21251;-58
2022/07/10 06:02:22;;;;;;;8.97;3.57;;;;;;;27.02;82.81;99131.45;1651439;86;21609;-57
2022/07/10 06:04:49;;;;;;;9.93;3.40;;;;;;;27.02;81.94;99126.88;1651474;86;21075;-57
2022/07/10 06:07:16;;;;;;;9.43;3.43;;;;;;;27.01;78.20;99115.16;1676864;83;22505;-56
2022/07/10 06:09:43;;;;;;;8.83;3.90;;;;;;;26.99;76.38;99123.50;1682277;83;21712;-60
2022/07/10 06:12:10;;;;;;;8.00;3.67;;;;;;;27.06;74.49;99116.33;1678022;83;22401;-57
2022/07/10 06:14:39;;;;;;;7.43;3.37;;;;;;;27.07;75.30;99111.98;1644011;86;21033;-58
2022/07/10 06:17:06;;;;;;;7.00;2.80;;;;;;;27.08;73.08;99107.42;1644142;86;21012;-58
2022/07/10 06:19:33;;;;;;;9.20;3.00;;;;;;;27.08;71.51;99105.53;1626212;87;21064;-56
2022/07/10 06:24:46;;;;;;;8.03;3.37;;;;;;;27.35;70.40;99097.67;1632938;87;21310;-56
2022/07/10 06:27:15;;;;;;;8.25;4.05;;;;;;;28.13;66.04;99091.03;1640837;86;21385;-57
2022/07/10 06:29:42;;;;;;;6.80;2.75;;;;;;;28.79;60.17;99082.20;1644001;86;21083;-58
2022/07/10 06:32:10;;;;;;;8.83;3.10;;;;;;;29.22;55.00;99071.00;1622220;87;21025;-56
2022/07/10 06:34:37;;;;;;;9.93;2.60;;;;;;;29.80;54.98;99072.95;1644717;86;21041;-57
2022/07/10 06:37:05;;;;;;;8.55;2.60;;;;;;;30.43;48.49;99064.91;1637439;86;21343;-56
2022/07/10 06:39:36;;;;;;;7.05;2.45;;;;;;;31.02;43.89;99062.16;1640280;86;21057;-62
2022/07/10 06:42:03;;;;;;;;;;;;;;;31.46;42.50;99061.27;1644816;85;21584;-57
2022/07/10 06:44:30;;;;;;;9.65;3.22;;;;;;;31.90;40.93;99073.20;1641741;86;20425;-56
2022/07/10 06:49:43;;;;;;;9.70;3.35;;;;;;;32.26;39.13;99070.61;1643234;85;21428;-56
2022/07/10 06:52:11;;;;;;;9.38;3.60;;;;;;;32.63;39.21;99062.83;1636376;86;21086;-56
2022/07/10 06:54:38;;;;;;;7.75;3.62;;;;;;;32.87;38.50;99068.99;1638668;86;21098;-58
2022/07/10 06:57:05;;;;;;;10.13;2.80;;;;;;;32.76;37.25;99076.13;1639877;86;21541;-56
2022/07/10 06:59:32;;;;;;;9.43;3.85;;;;;;;32.38;37.77;99062.92;1607678;87;21113;-60
2022/07/10 07:02:00;;;;;;;9.30;3.35;;;;;;;31.89;37.43;99064.88;1639976;86;21584;-63
2022/07/10 07:04:27;;;;;;;9.00;3.33;;;;;;;31.23;38.66;99075.92;1646382;86;21097;-55
2022/07/10 07:06:55;;;;;;;6.87;2.52;;;;;;;30.72;40.05;99076.62;1641800;86;21074;-56
2022/07/10 07:09:22;;;;;;;7.85;3.60;;;;;;;30.36;41.07;99086.22;1639500;85;21071;-58
2022/07/10 07:11:49;;;;;;;10.20;3.02;;;;;;;30.00;42.37;99086.55;1640731;86;21542;-55
2022/07/10 07:14:17;;;;;;;9.88;3.22;;;;;;;29.40;44.13;99084.17;1642319;86;21196;-56
2022/07/10 07:16:57;;;;;;;7.47;4.20;;;;;;;29.40;44.13;99084.17;1642546;85;21543;-58
2022/07/10 07:19:17;;;;;;;10.55;3.77;;;;;;;29.16;44.55;99080.38;1637250;86;21099;-58
2022/07/10 07:24:31;;;;;;;8.48;3.65;;;;;;;28.59;46.48;99083.84;1640082;86;21123;-58
2022/07/10 07:26:58;;;;;;;6.80;3.37;;;;;;;28.32;46.70;99064.53;1640046;86;21344;-57
2022/07/10 07:29:26;;;;;;;9.55;3.60;;;;;;;28.09;48.20;99066.79;1644773;86;21013;-61
2022/07/10 07:31:55;;;;;;;10.13;4.85;;;;;;;27.83;48.53;99046.91;1640769;84;21340;-59
2022/07/10 07:34:22;;;;;;;11.22;3.58;;;;;;;27.65;49.23;99049.45;1640016;85;21473;-55
2022/07/10 07:36:49;;;;;;;6.92;2.90;;;;;;;27.49;51.05;99054.60;1640168;86;20980;-55
2022/07/10 07:39:18;;;;;;;7.80;4.05;;;;;;;27.36;52.89;99059.66;1640334;86;20965;-63
2022/07/10 07:41:45;;;;;;;11.22;4.17;;;;;;;27.35;55.75;99069.58;1640313;86;21068;-63
2022/07/10 07:44:13;;;;;;;7.95;4.95;;;;;;;27.45;57.92;99064.95;1648447;85;21349;-55
2022/07/10 07:46:40;;;;;;;17.95;6.00;;;;;;;27.51;59.36;99058.30;1640559;85;21115;-55
2022/07/10 07:49:08;;;;;;;8.03;3.70;;;;;;;27.52;59.48;99066.56;1640943;85;21543;-59
2022/07/10 07:51:35;;;;;;;4.10;2.30;;;;;;;27.53;57.90;99048.05;1641047;86;21308;-59
2022/07/10 07:54:03;;;;;;;7.93;2.33;;;;;;;27.58;53.56;99059.36;1643720;85;20969;-57
2022/07/10 07:56:30;;;;;;;8.68;3.25;;;;;;;27.78;47.72;99049.02;1640311;86;21078;-56
2022/07/10 07:58:59;;;;;;;6.58;2.75;;;;;;;27.96;49.71;99052.32;1646961;85;21106;-56
2022/07/10 08:01:28;;;;;;;6.50;2.67;;;;;;;27.96;52.41;99063.03;1642009;85;21016;-55
2022/07/10 08:03:55;;;;;;;8.38;2.10;;;;;;;27.79;64.70;99063.96;1639586;86;21101;-57
2022/07/10 08:06:23;;;;;;;11.90;3.47;;;;;;;27.27;76.67;99068.27;1639479;86;21070;-55
2022/07/10 08:08:50;;;;;;;8.03;2.67;;;;;;;26.57;97.70;99059.14;1644718;86;21820;-54
2022/07/10 08:11:17;;;;;;;6.60;2.87;;;;;;;25.68;100.00;99068.54;1639570;86;21103;-55
2022/07/10 08:13:46;;;;;;;8.40;2.70;;;;;;;24.96;100.00;99061.19;1640035;86;21052;-55
2022/07/10 08:16:14;;;;;;;6.40;3.10;;;;;;;24.54;100.00;99065.18;1644812;84;22395;-59
2022/07/10 08:18:41;;;;;;;8.57;4.00;;;;;;;24.34;100.00;99068.32;1643758;85;21018;-57
2022/07/10 08:21:09;;;;;;;7.30;3.03;;;;;;;24.25;100.00;99082.36;1645168;85;21381;-55
2022/07/10 08:23:36;;;;;;;11.77;6.27;;;;;;;24.28;100.00;99083.62;1639981;86;21039;-63
2022/07/10 08:26:03;;;;;;;10.87;7.10;;;;;;;24.37;100.00;99097.02;1629325;86;21451;-57
2022/07/10 08:28:30;;;;;;;9.87;4.83;;;;;;;24.29;100.00;99101.19;1644613;85;22678;-62
2022/07/10 08:30:58;;;;;;;11.60;5.47;;;;;;;24.24;100.00;99103.95;1640213;86;21779;-56
2022/07/10 08:33:26;;;;;;;9.97;5.37;;;;;;;24.20;100.00;99114.41;1641537;85;21616;-55
2022/07/10 08:35:58;;;;;;;11.97;6.03;;;;;;;24.20;100.00;99114.41;1647188;85;21579;-56
2022/07/10 08:38:23;;;;;;;13.40;6.23;;;;;;;24.20;100.00;99123.73;1641034;86;21030;-64
2022/07/10 08:40:51;;;;;;;11.73;5.63;;;;;;;24.23;100.00;99126.35;1641435;86;21090;-55
2022/07/10 08:43:18;;;;;;;12.50;7.23;;;;;;;24.23;100.00;99114.37;1639773;85;21059;-55
2022/07/10 08:45:45;;;;;;;12.77;7.37;;;;;;;24.24;100.00;99123.92;1640314;86;21062;-57
2022/07/10 08:48:13;;;;;;;17.20;8.47;;;;;;;24.21;100.00;99120.55;1648302;85;21459;-57
2022/07/10 08:50:44;;;;;;;15.97;9.43;;;;;;;24.18;100.00;99128.59;1640407;86;20987;-57
2022/07/10 08:53:31;;;;;;;13.23;7.90;;;;;;;24.14;100.00;99128.16;1639596;86;21509;-56
2022/07/10 08:55:58;;;;;;;11.70;7.60;;;;;;;24.08;100.00;99124.03;1640796;85;21168;-56
2022/07/10 08:58:27;;;;;;;13.80;7.57;;;;;;;24.07;100.00;99127.23;1645734;85;21091;-62
2022/07/10 09:00:55;;;;;;;17.00;6.93;;;;;;;24.11;100.00;99132.75;1639292;86;21193;-56
2022/07/10 09:03:23;;;;;;;10.03;6.87;;;;;;;24.15;100.00;99137.72;1640275;86;21518;-55
2022/07/10 09:05:51;;;;;;;9.50;5.97;;;;;;;24.20;100.00;99132.27;1639608;86;22396;-55
2022/07/10 09:08:28;;;;;;;9.67;5.80;;;;;;;24.28;100.00;99131.55;1644750;86;20996;-55
2022/07/10 09:11:16;;;;;;;8.23;5.17;;;;;;;24.44;100.00;99142.70;1652457;85;22045;-55
2022/07/10 09:13:54;;;;;;;10.70;6.07;;;;;;;24.66;100.00;99137.38;1645482;85;21493;-57
2022/07/10 09:16:29;;;;;;;9.73;5.87;;;;;;;24.98;100.00;99140.85;1650306;85;21127;-57
2022/07/10 09:18:56;;;;;;;10.80;5.50;;;;;;;25.33;100.00;99149.83;1647276;85;21990;-63
2022/07/10 09:21:24;;;;;;;11.77;5.47;;;;;;;25.71;100.00;99152.78;1649714;85;21344;-57
2022/07/10 09:23:52;;;;;;;17.33;7.00;;;;;;;26.10;100.00;99158.38;1645576;85;20987;-61
2022/07/10 09:26:19;;;;;;;11.73;6.37;;;;;;;26.54;100.00;99151.19;1654747;85;21155;-55
2022/07/10 09:28:46;;;;;;;11.93;5.70;;;;;;;26.97;98.84;99156.45;1650678;85;20982;-55
2022/07/10 09:31:15;;;;;;;10.13;5.77;;;;;;;27.41;94.70;99156.58;1623650;86;21582;-56
2022/07/10 09:33:42;;;;;;;11.73;5.78;;;;;;;27.80;89.83;99157.91;1645781;85;21080;-60
2022/07/10 09:36:11;;;;;;;11.12;6.03;;;;;;;28.13;78.37;99164.71;1651265;85;21497;-55
2022/07/10 09:38:51;;;;;;;10.85;6.75;;;;;;;28.39;77.01;99163.77;1648331;85;21929;-55
2022/07/10 09:41:28;;;;;;;10.53;6.08;;;;;;;28.66;73.59;99157.05;1644655;85;20982;-55
2022/07/10 09:44:00;;;;;;;12.70;6.83;;;;;;;28.96;71.10;99162.50;1646741;85;21657;-56
2022/07/10 09:46:35;;;;;;;11.30;7.15;;;;;;;29.22;68.14;99163.59;1645294;85;20971;-56
2022/07/10 09:49:09;;;;;;;10.60;6.20;;;;;;;29.48;63.64;99163.84;1652949;85;20959;-63
2022/07/10 09:51:43;;;;;;;14.15;7.17;;;;;;;29.67;61.59;99158.71;1649076;85;21049;-56
2022/07/10 09:54:11;;;;;;;12.00;6.40;;;;;;;29.97;58.24;99150.39;1615834;87;21575;-55
2022/07/10 09:56:46;;;;;;;12.10;6.17;;;;;;;30.26;58.03;99153.34;1651460;86;22387;-56
2022/07/10 09:59:18;;;;;;;13.03;6.70;;;;;;;30.50;57.93;99157.30;1651511;86;20903;-59
2022/07/10 10:01:50;;;;;;;13.45;7.37;;;;;;;30.75;55.62;99146.45;1651984;86;22164;-55
2022/07/10 10:04:19;;;;;;;12.18;6.95;;;;;;;30.89;54.25;99144.12;1651634;84;21033;-56
2022/07/10 10:06:52;;;;;;;9.35;6.40;;;;;;;30.97;54.45;99135.67;1651815;85;21016;-61
2022/07/10 10:09:28;;;;;;;13.38;7.08;;;;;;;30.97;54.45;99135.67;1689829;83;22257;-56
2022/07/10 10:12:02;;;;;;;11.73;7.03;;;;;;;31.06;52.33;99132.23;1685724;83;21013;-55
2022/07/10 10:14:30;;;;;;;10.38;6.87;;;;;;;31.06;52.67;99128.19;1661401;85;21217;-62
2022/07/10 10:16:59;;;;;;;12.85;7.35;;;;;;;31.03;53.30;99126.22;1685420;83;21090;-56
2022/07/10 10:22:15;;;;;;;12.18;7.97;;;;;;;31.16;51.43;99116.91;1624106;87;21834;-57
2022/07/10 10:24:44;;;;;;;14.38;8.05;;;;;;;31.20;51.68;99107.01;1637974;87;21309;-56
2022/07/10 10:27:12;;;;;;;12.93;7.83;;;;;;;31.41;50.38;99107.33;1680558;83;21082;-55
2022/07/10 10:29:41;;;;;;;14.45;7.50;;;;;;;31.62;49.66;99103.75;1651768;85;21098;-55
2022/07/10 10:32:09;;;;;;;14.18;7.85;;;;;;;31.80;49.38;99101.45;1631612;86;21154;-60
2022/07/10 10:34:58;;;;;;;14.93;8.48;;;;;;;31.89;48.23;99106.66;1685328;83;21205;-64
2022/07/10 10:37:37;;;;;;;13.88;8.43;;;;;;;31.97;47.74;99104.31;1653664;85;21114;-56
2022/07/10 10:40:06;;;;;;;16.62;8.38;;;;;;;31.91;47.67;99097.09;1637863;86;21612;-59
2022/07/10 10:42:38;;;;;;;13.03;7.40;;;;;;;31.95;48.77;99093.89;1635380;86;20939;-58
2022/07/10 10:45:34;;;;;;;14.75;7.67;;;;;;;32.00;46.80;99091.48;1638634;86;21053;-59
2022/07/10 10:48:09;;;;;;;14.28;8.65;;;;;;;31.98;47.58;99089.16;1642356;86;21806;-65
2022/07/10 10:50:46;;;;;;;13.55;8.58;;;;;;;32.11;48.08;99085.73;1641299;86;21144;-56
2022/07/10 10:53:27;;;;;;;15.60;8.08;;;;;;;32.19;47.00;99079.34;1630121;86;21017;-56
2022/07/10 10:56:07;;;;;;;11.22;7.33;;;;;;;32.30;46.07;99076.84;1637434;86;21062;-56
2022/07/10 10:58:45;;;;;;;12.93;6.95;;;;;;;32.38;46.46;99070.44;1626561;86;21099;-58
2022/07/10 11:01:26;;;;;;;12.75;7.42;;;;;;;32.42;46.68;99071.89;1629760;86;21257;-65
2022/07/10 11:04:12;;;;;;;;;;;;;;;32.45;46.64;99066.56;1640126;86;21024;-56
2022/07/10 11:06:48;;;;;;;13.20;8.20;;;;;;;32.62;46.64;99068.02;1638754;86;20206;-57
2022/07/10 11:09:24;;;;;;;10.72;6.72;;;;;;;32.94;45.69;99056.42;1640013;86;21153;-56
2022/07/10 11:12:10;;;;;;;11.55;7.50;;;;;;;33.33;43.90;99048.11;1639949;86;20964;-56
2022/07/10 11:14:39;;;;;;;13.35;7.28;;;;;;;33.66;43.47;99050.70;1641371;86;21177;-58
2022/07/10 11:17:11;;;;;;;12.05;7.85;;;;;;;33.94;41.72;99050.83;1627628;86;21473;-57
2022/07/10 11:19:39;;;;;;;11.55;6.90;;;;;;;34.07;39.75;99047.55;1638823;86;28171;-61
2022/07/10 11:22:34;;;;;;;9.80;5.72;;;;;;;34.25;39.69;99044.26;1638043;86;21091;-57
2022/07/10 11:25:35;;;;;;;9.75;5.92;;;;;;;34.39;39.25;99043.80;1639607;86;21134;-56
2022/07/10 11:28:11;;;;;;;11.10;6.28;;;;;;;34.59;39.52;99050.41;1637318;86;21963;-56
2022/07/10 11:30:52;;;;;;;9.33;5.78;;;;;;;34.57;39.73;99045.34;1639364;86;21046;-60
2022/07/10 11:33:21;;;;;;;9.25;5.33;;;;;;;34.57;38.55;99044.58;1639539;86;21458;-55
2022/07/10 11:35:50;;;;;;;11.30;5.83;;;;;;;34.30;38.67;99047.97;1636427;86;21556;-55
2022/07/10 11:38:25;;;;;;;9.23;5.40;;;;;;;34.07;38.94;99037.30;1638569;86;21151;-59
2022/07/10 11:40:55;;;;;;;9.88;6.00;;;;;;;33.92;39.22;99039.62;1637250;86;21309;-56
2022/07/10 11:43:23;;;;;;;11.18;6.80;;;;;;;33.81;39.63;99044.89;1644347;86;21025;-64
2022/07/10 11:45:52;;;;;;;13.30;8.93;;;;;;;33.75;40.06;99039.02;1640212;86;21035;-55